sensor_id;sensor_type;location;lat;lon;timestamp;P1;durP1;ratioP1;P2;durP2;ratioP2
62523;SDS011;53689;56.878;60.672;2023-07-29T00:02:15;8.30;;;5.30;;
62523;SDS011;53689;56.878;60.672;2023-07-29T00:04:44;7.95;;;4.88;;
62523;SDS011;53689;56.878;60.672;2023-07-29T00:07:12;8.55;;;5.10;;
62523;SDS011;53689;56.878;60.672;2023-07-29T00:09:40;7.97;;;4.93;;
62523;SDS011;53689;56.878;60.672;2023-07-29T00:12:07;7.97;;;4.80;;
62523;SDS011;53689;56.878;60.672;2023-07-29T00:14:35;7.57;;;4.32;;
62523;SDS011;53689;56.878;60.672;2023-07-29T00:17:03;9.82;;;5.60;;
62523;SDS011;53689;56.878;60.672;2023-07-29T00:19:31;10.63;;;5.38;;
62523;SDS011;53689;56.878;60.672;2023-07-29T00:22:00;11.65;;;5.55;;
62523;SDS011;53689;56.878;60.672;2023-07-29T00:24:27;8.57;;;5.18;;
62523;SDS011;53689;56.878;60.672;2023-07-29T00:26:55;9.38;;;5.35;;
62523;SDS011;53689;56.878;60.672;2023-07-29T00:29:23;9.43;;;5.45;;
62523;SDS011;53689;56.878;60.672;2023-07-29T00:31:51;9.15;;;5.32;;
62523;SDS011;53689;56.878;60.672;2023-07-29T00:34:19;9.98;;;5.97;;
62523;SDS011;53689;56.878;60.672;2023-07-29T00:36:47;11.13;;;5.13;;
62523;SDS011;53689;56.878;60.672;2023-07-29T00:39:16;10.30;;;5.43;;
62523;SDS011;53689;56.878;60.672;2023-07-29T00:41:43;9.65;;;5.00;;
62523;SDS011;53689;56.878;60.672;2023-07-29T00:44:11;8.48;;;4.72;;
62523;SDS011;53689;56.878;60.672;2023-07-29T00:46:38;7.85;;;4.72;;
62523;SDS011;53689;56.878;60.672;2023-07-29T00:49:08;8.45;;;4.78;;
62523;SDS011;53689;56.878;60.672;2023-07-29T00:51:36;7.45;;;4.65;;
62523;SDS011;53689;56.878;60.672;2023-07-29T00:54:03;8.40;;;4.50;;
62523;SDS011;53689;56.878;60.672;2023-07-29T00:56:33;8.40;;;5.13;;
62523;SDS011;53689;56.878;60.672;2023-07-29T00:59:01;9.85;;;5.45;;
62523;SDS011;53689;56.878;60.672;2023-07-29T01:01:30;10.25;;;4.82;;
62523;SDS011;53689;56.878;60.672;2023-07-29T01:03:58;8.35;;;4.53;;
62523;SDS011;53689;56.878;60.672;2023-07-29T01:06:27;6.13;;;4.40;;
62523;SDS011;53689;56.878;60.672;2023-07-29T01:09:02;9.55;;;4.63;;
62523;SDS011;53689;56.878;60.672;2023-07-29T01:11:38;8.63;;;4.70;;
62523;SDS011;53689;56.878;60.672;2023-07-29T01:14:13;9.30;;;5.03;;
62523;SDS011;53689;56.878;60.672;2023-07-29T01:16:51;8.15;;;4.45;;
62523;SDS011;53689;56.878;60.672;2023-07-29T01:19:25;11.02;;;5.20;;
62523;SDS011;53689;56.878;60.672;2023-07-29T01:22:06;9.98;;;4.93;;
62523;SDS011;53689;56.878;60.672;2023-07-29T01:24:36;8.30;;;5.05;;
62523;SDS011;53689;56.878;60.672;2023-07-29T01:27:04;10.50;;;4.50;;
62523;SDS011;53689;56.878;60.672;2023-07-29T01:29:32;8.90;;;5.30;;
62523;SDS011;53689;56.878;60.672;2023-07-29T01:32:01;11.48;;;4.63;;
62523;SDS011;53689;56.878;60.672;2023-07-29T01:34:39;7.43;;;4.50;;
62523;SDS011;53689;56.878;60.672;2023-07-29T01:37:13;6.30;;;4.22;;
62523;SDS011;53689;56.878;60.672;2023-07-29T01:39:53;10.88;;;5.13;;
62523;SDS011;53689;56.878;60.672;2023-07-29T01:42:23;8.60;;;5.05;;
62523;SDS011;53689;56.878;60.672;2023-07-29T01:44:56;9.35;;;4.97;;
62523;SDS011;53689;56.878;60.672;2023-07-29T01:47:24;7.43;;;4.50;;
62523;SDS011;53689;56.878;60.672;2023-07-29T01:52:21;8.52;;;5.18;;
62523;SDS011;53689;56.878;60.672;2023-07-29T01:54:49;8.65;;;4.50;;
62523;SDS011;53689;56.878;60.672;2023-07-29T01:57:18;7.40;;;4.65;;
62523;SDS011;53689;56.878;60.672;2023-07-29T01:59:46;10.43;;;5.35;;
62523;SDS011;53689;56.878;60.672;2023-07-29T02:02:15;8.18;;;4.28;;
62523;SDS011;53689;56.878;60.672;2023-07-29T02:04:42;8.20;;;5.05;;
62523;SDS011;53689;56.878;60.672;2023-07-29T02:07:10;9.77;;;5.22;;
62523;SDS011;53689;56.878;60.672;2023-07-29T02:09:38;8.25;;;4.90;;
62523;SDS011;53689;56.878;60.672;2023-07-29T02:12:06;10.50;;;4.72;;
62523;SDS011;53689;56.878;60.672;2023-07-29T02:14:38;8.50;;;4.40;;
62523;SDS011;53689;56.878;60.672;2023-07-29T02:17:06;11.90;;;5.13;;
62523;SDS011;53689;56.878;60.672;2023-07-29T02:19:33;11.25;;;5.38;;
62523;SDS011;53689;56.878;60.672;2023-07-29T02:22:01;10.15;;;5.15;;
62523;SDS011;53689;56.878;60.672;2023-07-29T02:24:29;8.55;;;4.55;;
62523;SDS011;53689;56.878;60.672;2023-07-29T02:26:57;8.20;;;4.47;;
62523;SDS011;53689;56.878;60.672;2023-07-29T02:29:25;8.23;;;5.18;;
62523;SDS011;53689;56.878;60.672;2023-07-29T02:31:54;9.50;;;4.97;;
62523;SDS011;53689;56.878;60.672;2023-07-29T02:36:49;10.18;;;5.15;;
62523;SDS011;53689;56.878;60.672;2023-07-29T02:39:17;8.48;;;5.00;;
62523;SDS011;53689;56.878;60.672;2023-07-29T02:41:45;9.23;;;5.13;;
62523;SDS011;53689;56.878;60.672;2023-07-29T02:44:13;9.73;;;4.78;;
62523;SDS011;53689;56.878;60.672;2023-07-29T02:46:41;8.93;;;4.95;;
62523;SDS011;53689;56.878;60.672;2023-07-29T02:49:10;7.85;;;4.40;;
62523;SDS011;53689;56.878;60.672;2023-07-29T02:51:38;12.65;;;4.40;;
62523;SDS011;53689;56.878;60.672;2023-07-29T02:54:05;9.38;;;4.80;;
62523;SDS011;53689;56.878;60.672;2023-07-29T02:56:33;8.82;;;4.97;;
62523;SDS011;53689;56.878;60.672;2023-07-29T02:59:01;9.98;;;4.30;;
62523;SDS011;53689;56.878;60.672;2023-07-29T03:01:30;9.27;;;4.72;;
62523;SDS011;53689;56.878;60.672;2023-07-29T03:03:57;8.30;;;4.47;;
62523;SDS011;53689;56.878;60.672;2023-07-29T03:06:27;7.45;;;4.85;;
62523;SDS011;53689;56.878;60.672;2023-07-29T03:08:54;7.70;;;4.35;;
62523;SDS011;53689;56.878;60.672;2023-07-29T03:11:22;9.38;;;4.28;;
62523;SDS011;53689;56.878;60.672;2023-07-29T03:13:50;6.70;;;4.57;;
62523;SDS011;53689;56.878;60.672;2023-07-29T03:16:17;10.27;;;4.68;;
62523;SDS011;53689;56.878;60.672;2023-07-29T03:18:51;10.38;;;4.53;;
62523;SDS011;53689;56.878;60.672;2023-07-29T03:21:18;8.05;;;4.47;;
62523;SDS011;53689;56.878;60.672;2023-07-29T03:23:47;9.55;;;4.35;;
62523;SDS011;53689;56.878;60.672;2023-07-29T03:26:15;7.97;;;4.18;;
62523;SDS011;53689;56.878;60.672;2023-07-29T03:28:43;7.28;;;4.65;;
62523;SDS011;53689;56.878;60.672;2023-07-29T03:31:11;9.20;;;4.88;;
62523;SDS011;53689;56.878;60.672;2023-07-29T03:33:38;8.63;;;4.80;;
62523;SDS011;53689;56.878;60.672;2023-07-29T03:36:06;7.32;;;4.25;;
62523;SDS011;53689;56.878;60.672;2023-07-29T03:38:34;8.32;;;4.47;;
62523;SDS011;53689;56.878;60.672;2023-07-29T03:41:03;6.28;;;4.28;;
62523;SDS011;53689;56.878;60.672;2023-07-29T03:43:30;10.07;;;4.70;;
62523;SDS011;53689;56.878;60.672;2023-07-29T03:46:00;6.93;;;4.07;;
62523;SDS011;53689;56.878;60.672;2023-07-29T03:48:29;7.13;;;4.43;;
62523;SDS011;53689;56.878;60.672;2023-07-29T03:50:56;6.68;;;4.13;;
62523;SDS011;53689;56.878;60.672;2023-07-29T03:53:24;9.85;;;4.75;;
62523;SDS011;53689;56.878;60.672;2023-07-29T03:55:52;7.20;;;4.75;;
62523;SDS011;53689;56.878;60.672;2023-07-29T03:58:21;7.75;;;4.53;;
62523;SDS011;53689;56.878;60.672;2023-07-29T04:00:49;10.45;;;4.63;;
62523;SDS011;53689;56.878;60.672;2023-07-29T04:03:16;8.25;;;4.50;;
62523;SDS011;53689;56.878;60.672;2023-07-29T04:05:44;7.43;;;4.45;;
62523;SDS011;53689;56.878;60.672;2023-07-29T04:08:12;7.32;;;4.38;;
62523;SDS011;53689;56.878;60.672;2023-07-29T04:10:40;7.30;;;4.25;;
62523;SDS011;53689;56.878;60.672;2023-07-29T04:13:07;6.93;;;4.35;;
62523;SDS011;53689;56.878;60.672;2023-07-29T04:15:36;8.82;;;3.92;;
62523;SDS011;53689;56.878;60.672;2023-07-29T04:18:04;6.78;;;4.35;;
62523;SDS011;53689;56.878;60.672;2023-07-29T04:20:32;8.38;;;3.92;;
62523;SDS011;53689;56.878;60.672;2023-07-29T04:23:00;7.72;;;4.25;;
62523;SDS011;53689;56.878;60.672;2023-07-29T04:25:28;7.05;;;3.83;;
62523;SDS011;53689;56.878;60.672;2023-07-29T04:27:55;8.45;;;4.25;;
62523;SDS011;53689;56.878;60.672;2023-07-29T04:30:24;7.65;;;4.10;;
62523;SDS011;53689;56.878;60.672;2023-07-29T04:32:53;6.95;;;4.32;;
62523;SDS011;53689;56.878;60.672;2023-07-29T04:35:20;7.25;;;4.30;;
62523;SDS011;53689;56.878;60.672;2023-07-29T04:37:48;7.03;;;4.47;;
62523;SDS011;53689;56.878;60.672;2023-07-29T04:40:16;8.10;;;4.32;;
62523;SDS011;53689;56.878;60.672;2023-07-29T04:42:43;7.88;;;4.07;;
62523;SDS011;53689;56.878;60.672;2023-07-29T04:45:11;9.15;;;4.55;;
62523;SDS011;53689;56.878;60.672;2023-07-29T04:47:39;7.30;;;4.50;;
62523;SDS011;53689;56.878;60.672;2023-07-29T04:50:09;8.27;;;4.85;;
62523;SDS011;53689;56.878;60.672;2023-07-29T04:52:36;8.95;;;4.00;;
62523;SDS011;53689;56.878;60.672;2023-07-29T04:55:05;8.45;;;4.53;;
62523;SDS011;53689;56.878;60.672;2023-07-29T04:57:33;8.88;;;5.75;;
62523;SDS011;53689;56.878;60.672;2023-07-29T05:00:01;9.65;;;5.03;;
62523;SDS011;53689;56.878;60.672;2023-07-29T05:02:29;7.50;;;4.43;;
62523;SDS011;53689;56.878;60.672;2023-07-29T05:04:57;7.65;;;4.45;;
62523;SDS011;53689;56.878;60.672;2023-07-29T05:07:26;11.30;;;5.22;;
62523;SDS011;53689;56.878;60.672;2023-07-29T05:09:54;8.88;;;4.47;;
62523;SDS011;53689;56.878;60.672;2023-07-29T05:12:22;13.45;;;4.90;;
62523;SDS011;53689;56.878;60.672;2023-07-29T05:14:49;8.13;;;5.00;;
62523;SDS011;53689;56.878;60.672;2023-07-29T05:17:17;8.23;;;4.78;;
62523;SDS011;53689;56.878;60.672;2023-07-29T05:19:45;11.65;;;5.57;;
62523;SDS011;53689;56.878;60.672;2023-07-29T05:22:12;8.90;;;5.10;;
62523;SDS011;53689;56.878;60.672;2023-07-29T05:24:41;6.28;;;4.78;;
62523;SDS011;53689;56.878;60.672;2023-07-29T05:27:09;7.53;;;5.13;;
62523;SDS011;53689;56.878;60.672;2023-07-29T05:29:37;8.05;;;4.90;;
62523;SDS011;53689;56.878;60.672;2023-07-29T05:32:05;8.18;;;4.72;;
62523;SDS011;53689;56.878;60.672;2023-07-29T05:34:33;7.85;;;4.60;;
62523;SDS011;53689;56.878;60.672;2023-07-29T05:37:00;8.20;;;4.90;;
62523;SDS011;53689;56.878;60.672;2023-07-29T05:39:28;8.95;;;5.05;;
62523;SDS011;53689;56.878;60.672;2023-07-29T05:41:58;7.97;;;4.90;;
62523;SDS011;53689;56.878;60.672;2023-07-29T05:44:25;6.68;;;4.63;;
62523;SDS011;53689;56.878;60.672;2023-07-29T05:46:53;8.63;;;5.40;;
62523;SDS011;53689;56.878;60.672;2023-07-29T05:49:20;8.50;;;4.60;;
62523;SDS011;53689;56.878;60.672;2023-07-29T05:51:48;7.18;;;4.55;;
62523;SDS011;53689;56.878;60.672;2023-07-29T05:54:17;6.10;;;4.57;;
62523;SDS011;53689;56.878;60.672;2023-07-29T05:56:45;6.78;;;4.70;;
62523;SDS011;53689;56.878;60.672;2023-07-29T05:59:14;6.90;;;4.97;;
62523;SDS011;53689;56.878;60.672;2023-07-29T06:01:42;7.00;;;4.80;;
62523;SDS011;53689;56.878;60.672;2023-07-29T06:04:09;11.77;;;6.07;;
62523;SDS011;53689;56.878;60.672;2023-07-29T06:06:37;9.88;;;6.25;;
62523;SDS011;53689;56.878;60.672;2023-07-29T06:09:05;9.38;;;6.30;;
62523;SDS011;53689;56.878;60.672;2023-07-29T06:11:33;9.98;;;5.82;;
62523;SDS011;53689;56.878;60.672;2023-07-29T06:14:01;8.95;;;5.60;;
62523;SDS011;53689;56.878;60.672;2023-07-29T06:16:30;7.40;;;5.20;;
62523;SDS011;53689;56.878;60.672;2023-07-29T06:21:25;9.70;;;6.65;;
62523;SDS011;53689;56.878;60.672;2023-07-29T06:23:53;7.30;;;4.93;;
62523;SDS011;53689;56.878;60.672;2023-07-29T06:26:21;10.68;;;5.35;;
62523;SDS011;53689;56.878;60.672;2023-07-29T06:28:48;10.57;;;6.03;;
62523;SDS011;53689;56.878;60.672;2023-07-29T06:31:16;8.68;;;5.78;;
62523;SDS011;53689;56.878;60.672;2023-07-29T06:33:45;8.25;;;6.25;;
62523;SDS011;53689;56.878;60.672;2023-07-29T06:36:13;12.35;;;7.10;;
62523;SDS011;53689;56.878;60.672;2023-07-29T06:38:40;9.57;;;6.28;;
62523;SDS011;53689;56.878;60.672;2023-07-29T06:41:08;9.38;;;5.68;;
62523;SDS011;53689;56.878;60.672;2023-07-29T06:43:39;7.78;;;4.88;;
62523;SDS011;53689;56.878;60.672;2023-07-29T06:46:07;9.30;;;4.80;;
62523;SDS011;53689;56.878;60.672;2023-07-29T06:48:36;10.23;;;5.97;;
62523;SDS011;53689;56.878;60.672;2023-07-29T06:51:05;8.38;;;6.45;;
62523;SDS011;53689;56.878;60.672;2023-07-29T06:53:33;9.50;;;6.25;;
62523;SDS011;53689;56.878;60.672;2023-07-29T06:56:01;10.70;;;7.03;;
62523;SDS011;53689;56.878;60.672;2023-07-29T06:58:29;10.68;;;6.88;;
62523;SDS011;53689;56.878;60.672;2023-07-29T07:00:56;9.48;;;6.20;;
62523;SDS011;53689;56.878;60.672;2023-07-29T07:03:24;12.65;;;6.97;;
62523;SDS011;53689;56.878;60.672;2023-07-29T07:05:52;15.93;;;6.97;;
62523;SDS011;53689;56.878;60.672;2023-07-29T07:08:21;12.80;;;7.60;;
62523;SDS011;53689;56.878;60.672;2023-07-29T07:10:48;11.65;;;7.22;;
62523;SDS011;53689;56.878;60.672;2023-07-29T07:13:16;11.20;;;7.20;;
62523;SDS011;53689;56.878;60.672;2023-07-29T07:15:44;14.77;;;8.43;;
62523;SDS011;53689;56.878;60.672;2023-07-29T07:18:12;12.48;;;7.80;;
62523;SDS011;53689;56.878;60.672;2023-07-29T07:20:39;8.57;;;6.10;;
62523;SDS011;53689;56.878;60.672;2023-07-29T07:23:07;11.98;;;7.10;;
62523;SDS011;53689;56.878;60.672;2023-07-29T07:25:36;9.70;;;6.68;;
62523;SDS011;53689;56.878;60.672;2023-07-29T07:28:03;13.25;;;8.23;;
62523;SDS011;53689;56.878;60.672;2023-07-29T07:30:31;13.07;;;8.02;;
62523;SDS011;53689;56.878;60.672;2023-07-29T07:32:59;11.90;;;8.25;;
62523;SDS011;53689;56.878;60.672;2023-07-29T07:35:26;11.90;;;8.45;;
62523;SDS011;53689;56.878;60.672;2023-07-29T07:37:54;14.38;;;8.07;;
62523;SDS011;53689;56.878;60.672;2023-07-29T07:40:21;11.77;;;8.15;;
62523;SDS011;53689;56.878;60.672;2023-07-29T07:42:51;11.88;;;8.65;;
62523;SDS011;53689;56.878;60.672;2023-07-29T07:45:18;12.38;;;8.77;;
62523;SDS011;53689;56.878;60.672;2023-07-29T07:47:46;11.13;;;7.72;;
62523;SDS011;53689;56.878;60.672;2023-07-29T07:50:14;12.88;;;8.80;;
62523;SDS011;53689;56.878;60.672;2023-07-29T07:52:41;12.35;;;8.75;;
62523;SDS011;53689;56.878;60.672;2023-07-29T07:55:09;12.52;;;8.20;;
62523;SDS011;53689;56.878;60.672;2023-07-29T07:57:37;13.05;;;8.65;;
62523;SDS011;53689;56.878;60.672;2023-07-29T08:00:06;14.57;;;8.15;;
62523;SDS011;53689;56.878;60.672;2023-07-29T08:02:41;15.68;;;8.38;;
62523;SDS011;53689;56.878;60.672;2023-07-29T08:05:10;12.40;;;8.13;;
62523;SDS011;53689;56.878;60.672;2023-07-29T08:07:38;12.20;;;8.05;;
62523;SDS011;53689;56.878;60.672;2023-07-29T08:10:06;11.48;;;7.63;;
62523;SDS011;53689;56.878;60.672;2023-07-29T08:12:35;12.05;;;7.45;;
62523;SDS011;53689;56.878;60.672;2023-07-29T08:15:02;13.68;;;8.32;;
62523;SDS011;53689;56.878;60.672;2023-07-29T08:17:32;14.98;;;7.68;;
62523;SDS011;53689;56.878;60.672;2023-07-29T08:20:00;10.45;;;6.85;;
62523;SDS011;53689;56.878;60.672;2023-07-29T08:22:28;10.93;;;8.38;;
62523;SDS011;53689;56.878;60.672;2023-07-29T08:24:55;10.95;;;7.43;;
62523;SDS011;53689;56.878;60.672;2023-07-29T08:27:23;11.10;;;7.53;;
62523;SDS011;53689;56.878;60.672;2023-07-29T08:29:51;11.65;;;7.60;;
62523;SDS011;53689;56.878;60.672;2023-07-29T08:32:20;11.27;;;7.18;;
62523;SDS011;53689;56.878;60.672;2023-07-29T08:34:49;9.48;;;6.75;;
62523;SDS011;53689;56.878;60.672;2023-07-29T08:37:17;11.70;;;7.40;;
62523;SDS011;53689;56.878;60.672;2023-07-29T08:39:45;12.82;;;7.65;;
62523;SDS011;53689;56.878;60.672;2023-07-29T08:42:13;10.73;;;7.38;;
62523;SDS011;53689;56.878;60.672;2023-07-29T08:44:44;12.50;;;7.40;;
62523;SDS011;53689;56.878;60.672;2023-07-29T08:47:15;12.10;;;6.90;;
62523;SDS011;53689;56.878;60.672;2023-07-29T08:49:43;9.75;;;6.95;;
62523;SDS011;53689;56.878;60.672;2023-07-29T08:52:14;10.25;;;6.90;;
62523;SDS011;53689;56.878;60.672;2023-07-29T08:54:42;12.63;;;7.32;;
62523;SDS011;53689;56.878;60.672;2023-07-29T08:57:10;9.55;;;7.07;;
62523;SDS011;53689;56.878;60.672;2023-07-29T08:59:38;10.27;;;6.95;;
62523;SDS011;53689;56.878;60.672;2023-07-29T09:02:06;9.88;;;7.03;;
62523;SDS011;53689;56.878;60.672;2023-07-29T09:04:34;11.23;;;7.22;;
62523;SDS011;53689;56.878;60.672;2023-07-29T09:07:01;8.65;;;7.05;;
62523;SDS011;53689;56.878;60.672;2023-07-29T09:09:33;10.18;;;6.55;;
62523;SDS011;53689;56.878;60.672;2023-07-29T09:12:01;9.25;;;6.50;;
62523;SDS011;53689;56.878;60.672;2023-07-29T09:14:29;7.78;;;5.90;;
62523;SDS011;53689;56.878;60.672;2023-07-29T09:16:57;10.18;;;7.43;;
62523;SDS011;53689;56.878;60.672;2023-07-29T09:19:25;15.65;;;9.77;;
62523;SDS011;53689;56.878;60.672;2023-07-29T09:21:53;14.77;;;9.25;;
62523;SDS011;53689;56.878;60.672;2023-07-29T09:24:20;12.50;;;9.25;;
62523;SDS011;53689;56.878;60.672;2023-07-29T09:26:50;11.48;;;7.85;;
62523;SDS011;53689;56.878;60.672;2023-07-29T09:31:48;12.95;;;8.00;;
62523;SDS011;53689;56.878;60.672;2023-07-29T09:34:16;10.68;;;8.05;;
62523;SDS011;53689;56.878;60.672;2023-07-29T09:36:44;9.70;;;7.82;;
62523;SDS011;53689;56.878;60.672;2023-07-29T09:39:11;10.93;;;7.60;;
62523;SDS011;53689;56.878;60.672;2023-07-29T09:41:39;10.93;;;7.65;;
62523;SDS011;53689;56.878;60.672;2023-07-29T09:44:10;12.18;;;7.40;;
62523;SDS011;53689;56.878;60.672;2023-07-29T09:46:37;10.40;;;7.22;;
62523;SDS011;53689;56.878;60.672;2023-07-29T09:49:06;10.90;;;6.32;;
62523;SDS011;53689;56.878;60.672;2023-07-29T09:51:37;9.67;;;6.93;;
62523;SDS011;53689;56.878;60.672;2023-07-29T09:54:05;11.02;;;6.35;;
62523;SDS011;53689;56.878;60.672;2023-07-29T09:56:33;8.73;;;7.13;;
62523;SDS011;53689;56.878;60.672;2023-07-29T09:59:08;9.38;;;6.00;;
62523;SDS011;53689;56.878;60.672;2023-07-29T10:01:36;10.50;;;7.38;;
62523;SDS011;53689;56.878;60.672;2023-07-29T10:04:05;9.63;;;6.47;;
62523;SDS011;53689;56.878;60.672;2023-07-29T10:06:37;10.20;;;7.38;;
62523;SDS011;53689;56.878;60.672;2023-07-29T10:09:06;9.90;;;7.32;;
62523;SDS011;53689;56.878;60.672;2023-07-29T10:11:35;10.65;;;7.20;;
62523;SDS011;53689;56.878;60.672;2023-07-29T10:14:03;9.93;;;6.35;;
62523;SDS011;53689;56.878;60.672;2023-07-29T10:16:37;8.90;;;6.43;;
62523;SDS011;53689;56.878;60.672;2023-07-29T10:19:06;10.35;;;6.68;;
62523;SDS011;53689;56.878;60.672;2023-07-29T10:21:34;10.65;;;6.50;;
62523;SDS011;53689;56.878;60.672;2023-07-29T10:24:06;7.82;;;6.63;;
62523;SDS011;53689;56.878;60.672;2023-07-29T10:26:38;9.82;;;6.78;;
62523;SDS011;53689;56.878;60.672;2023-07-29T10:29:11;9.90;;;7.32;;
62523;SDS011;53689;56.878;60.672;2023-07-29T10:31:43;9.00;;;6.78;;
62523;SDS011;53689;56.878;60.672;2023-07-29T10:34:11;10.45;;;6.88;;
62523;SDS011;53689;56.878;60.672;2023-07-29T10:36:40;12.25;;;7.28;;
62523;SDS011;53689;56.878;60.672;2023-07-29T10:39:08;9.35;;;6.30;;
62523;SDS011;53689;56.878;60.672;2023-07-29T10:41:55;15.82;;;8.88;;
62523;SDS011;53689;56.878;60.672;2023-07-29T10:47:15;17.20;;;9.00;;
62523;SDS011;53689;56.878;60.672;2023-07-29T10:49:44;24.35;;;8.88;;
62523;SDS011;53689;56.878;60.672;2023-07-29T10:54:44;19.35;;;9.30;;
62523;SDS011;53689;56.878;60.672;2023-07-29T10:57:12;12.98;;;7.72;;
62523;SDS011;53689;56.878;60.672;2023-07-29T10:59:40;18.30;;;8.90;;
62523;SDS011;53689;56.878;60.672;2023-07-29T11:02:21;11.38;;;6.93;;
62523;SDS011;53689;56.878;60.672;2023-07-29T11:04:56;12.27;;;7.65;;
62523;SDS011;53689;56.878;60.672;2023-07-29T11:07:24;15.73;;;7.72;;
62523;SDS011;53689;56.878;60.672;2023-07-29T11:09:59;14.88;;;7.55;;
62523;SDS011;53689;56.878;60.672;2023-07-29T11:12:34;13.07;;;7.97;;
62523;SDS011;53689;56.878;60.672;2023-07-29T11:15:03;11.85;;;8.40;;
62523;SDS011;53689;56.878;60.672;2023-07-29T11:17:40;12.60;;;8.20;;
62523;SDS011;53689;56.878;60.672;2023-07-29T11:20:09;17.70;;;8.90;;
62523;SDS011;53689;56.878;60.672;2023-07-29T11:22:37;14.57;;;9.07;;
62523;SDS011;53689;56.878;60.672;2023-07-29T11:25:07;16.23;;;9.00;;
62523;SDS011;53689;56.878;60.672;2023-07-29T11:27:36;16.00;;;8.93;;
62523;SDS011;53689;56.878;60.672;2023-07-29T11:30:04;13.02;;;7.90;;
62523;SDS011;53689;56.878;60.672;2023-07-29T11:35:06;13.13;;;7.57;;
62523;SDS011;53689;56.878;60.672;2023-07-29T11:37:34;11.23;;;6.93;;
62523;SDS011;53689;56.878;60.672;2023-07-29T11:40:02;10.82;;;7.00;;
62523;SDS011;53689;56.878;60.672;2023-07-29T11:42:31;14.20;;;8.02;;
62523;SDS011;53689;56.878;60.672;2023-07-29T11:44:59;10.95;;;7.78;;
62523;SDS011;53689;56.878;60.672;2023-07-29T11:47:28;12.40;;;7.55;;
62523;SDS011;53689;56.878;60.672;2023-07-29T11:49:58;12.40;;;7.95;;
62523;SDS011;53689;56.878;60.672;2023-07-29T11:52:28;10.23;;;7.20;;
62523;SDS011;53689;56.878;60.672;2023-07-29T11:54:58;11.77;;;7.10;;
62523;SDS011;53689;56.878;60.672;2023-07-29T11:57:26;9.95;;;7.60;;
62523;SDS011;53689;56.878;60.672;2023-07-29T11:59:54;11.60;;;7.20;;
62523;SDS011;53689;56.878;60.672;2023-07-29T12:02:22;12.35;;;7.15;;
62523;SDS011;53689;56.878;60.672;2023-07-29T12:04:51;10.47;;;7.30;;
62523;SDS011;53689;56.878;60.672;2023-07-29T12:07:20;11.85;;;7.45;;
62523;SDS011;53689;56.878;60.672;2023-07-29T12:09:49;10.23;;;7.05;;
62523;SDS011;53689;56.878;60.672;2023-07-29T12:12:18;12.82;;;7.18;;
62523;SDS011;53689;56.878;60.672;2023-07-29T12:14:48;10.05;;;6.80;;
62523;SDS011;53689;56.878;60.672;2023-07-29T12:17:17;11.20;;;6.80;;
62523;SDS011;53689;56.878;60.672;2023-07-29T12:19:46;11.02;;;6.82;;
62523;SDS011;53689;56.878;60.672;2023-07-29T12:22:17;8.75;;;6.55;;
62523;SDS011;53689;56.878;60.672;2023-07-29T12:24:46;10.80;;;6.93;;
62523;SDS011;53689;56.878;60.672;2023-07-29T12:27:15;10.82;;;6.68;;
62523;SDS011;53689;56.878;60.672;2023-07-29T12:29:43;9.15;;;6.90;;
62523;SDS011;53689;56.878;60.672;2023-07-29T12:32:11;11.20;;;6.90;;
62523;SDS011;53689;56.878;60.672;2023-07-29T12:34:39;11.13;;;6.95;;
62523;SDS011;53689;56.878;60.672;2023-07-29T12:37:07;10.30;;;7.93;;
62523;SDS011;53689;56.878;60.672;2023-07-29T12:39:35;11.98;;;6.47;;
62523;SDS011;53689;56.878;60.672;2023-07-29T12:42:07;10.82;;;6.97;;
62523;SDS011;53689;56.878;60.672;2023-07-29T12:44:37;10.85;;;6.90;;
62523;SDS011;53689;56.878;60.672;2023-07-29T12:49:33;12.25;;;6.70;;
62523;SDS011;53689;56.878;60.672;2023-07-29T12:52:00;9.93;;;6.75;;
62523;SDS011;53689;56.878;60.672;2023-07-29T12:54:28;9.60;;;6.47;;
62523;SDS011;53689;56.878;60.672;2023-07-29T12:56:56;9.07;;;6.55;;
62523;SDS011;53689;56.878;60.672;2023-07-29T12:59:23;8.90;;;6.85;;
62523;SDS011;53689;56.878;60.672;2023-07-29T13:01:52;10.20;;;6.72;;
62523;SDS011;53689;56.878;60.672;2023-07-29T13:06:47;9.27;;;6.53;;
62523;SDS011;53689;56.878;60.672;2023-07-29T13:09:15;10.27;;;6.50;;
62523;SDS011;53689;56.878;60.672;2023-07-29T13:11:43;9.00;;;5.90;;
62523;SDS011;53689;56.878;60.672;2023-07-29T13:14:10;9.75;;;6.68;;
62523;SDS011;53689;56.878;60.672;2023-07-29T13:16:39;10.27;;;6.95;;
62523;SDS011;53689;56.878;60.672;2023-07-29T13:19:08;8.93;;;6.32;;
62523;SDS011;53689;56.878;60.672;2023-07-29T13:21:35;9.40;;;6.60;;
62523;SDS011;53689;56.878;60.672;2023-07-29T13:24:03;8.95;;;6.65;;
62523;SDS011;53689;56.878;60.672;2023-07-29T13:26:31;12.80;;;7.32;;
62523;SDS011;53689;56.878;60.672;2023-07-29T13:28:59;11.30;;;6.50;;
62523;SDS011;53689;56.878;60.672;2023-07-29T13:31:26;12.38;;;7.15;;
62523;SDS011;53689;56.878;60.672;2023-07-29T13:33:54;9.77;;;6.30;;
62523;SDS011;53689;56.878;60.672;2023-07-29T13:36:23;11.05;;;6.43;;
62523;SDS011;53689;56.878;60.672;2023-07-29T13:38:51;11.63;;;7.68;;
62523;SDS011;53689;56.878;60.672;2023-07-29T13:41:19;14.35;;;7.72;;
62523;SDS011;53689;56.878;60.672;2023-07-29T13:43:46;10.48;;;7.10;;
62523;SDS011;53689;56.878;60.672;2023-07-29T13:46:14;11.43;;;7.78;;
62523;SDS011;53689;56.878;60.672;2023-07-29T13:48:42;12.93;;;7.13;;
62523;SDS011;53689;56.878;60.672;2023-07-29T13:51:10;13.02;;;7.70;;
62523;SDS011;53689;56.878;60.672;2023-07-29T13:53:39;10.10;;;6.50;;
62523;SDS011;53689;56.878;60.672;2023-07-29T13:56:07;11.07;;;7.15;;
62523;SDS011;53689;56.878;60.672;2023-07-29T13:58:35;12.02;;;7.80;;
62523;SDS011;53689;56.878;60.672;2023-07-29T14:01:02;11.20;;;7.68;;
62523;SDS011;53689;56.878;60.672;2023-07-29T14:03:30;12.70;;;7.28;;
62523;SDS011;53689;56.878;60.672;2023-07-29T14:05:58;10.35;;;6.95;;
62523;SDS011;53689;56.878;60.672;2023-07-29T14:08:26;8.70;;;6.68;;
62523;SDS011;53689;56.878;60.672;2023-07-29T14:10:55;9.80;;;6.50;;
62523;SDS011;53689;56.878;60.672;2023-07-29T14:13:23;11.95;;;6.82;;
62523;SDS011;53689;56.878;60.672;2023-07-29T14:15:50;9.57;;;6.35;;
62523;SDS011;53689;56.878;60.672;2023-07-29T14:18:18;9.63;;;7.03;;
62523;SDS011;53689;56.878;60.672;2023-07-29T14:20:46;10.63;;;6.70;;
62523;SDS011;53689;56.878;60.672;2023-07-29T14:23:13;9.57;;;6.90;;
62523;SDS011;53689;56.878;60.672;2023-07-29T14:25:41;9.65;;;7.05;;
62523;SDS011;53689;56.878;60.672;2023-07-29T14:28:12;9.00;;;6.45;;
62523;SDS011;53689;56.878;60.672;2023-07-29T14:30:40;10.52;;;6.80;;
62523;SDS011;53689;56.878;60.672;2023-07-29T14:33:08;9.88;;;7.35;;
62523;SDS011;53689;56.878;60.672;2023-07-29T14:35:36;10.18;;;6.55;;
62523;SDS011;53689;56.878;60.672;2023-07-29T14:38:04;10.90;;;7.07;;
62523;SDS011;53689;56.878;60.672;2023-07-29T14:40:31;12.18;;;7.35;;
62523;SDS011;53689;56.878;60.672;2023-07-29T14:42:59;10.85;;;7.65;;
62523;SDS011;53689;56.878;60.672;2023-07-29T14:45:28;10.75;;;7.28;;
62523;SDS011;53689;56.878;60.672;2023-07-29T14:47:56;11.68;;;7.75;;
62523;SDS011;53689;56.878;60.672;2023-07-29T14:50:23;10.77;;;7.97;;
62523;SDS011;53689;56.878;60.672;2023-07-29T14:52:51;10.27;;;6.88;;
62523;SDS011;53689;56.878;60.672;2023-07-29T14:55:18;8.20;;;6.82;;
62523;SDS011;53689;56.878;60.672;2023-07-29T14:57:46;9.80;;;6.78;;
62523;SDS011;53689;56.878;60.672;2023-07-29T15:00:14;9.95;;;7.13;;